createdAt,value
2023-09-21T00:00:28.253Z,20.20
2023-09-21T00:02:55.801Z,20.30
2023-09-21T00:05:24.928Z,20.30
2023-09-21T00:07:52.329Z,20.30
2023-09-21T00:10:19.635Z,20.20
2023-09-21T00:12:46.933Z,20.30
2023-09-21T00:15:21.758Z,20.20
2023-09-21T00:21:40.093Z,20.20
2023-09-21T00:24:17.271Z,20.20
2023-09-21T00:26:48.145Z,20.10
2023-09-21T00:29:16.301Z,20.10
2023-09-21T00:31:43.572Z,20.10
2023-09-21T00:34:13.929Z,20.00
2023-09-21T00:36:45.610Z,20.00
2023-09-21T00:42:52.689Z,20.10
2023-09-21T00:45:21.291Z,19.90
2023-09-21T00:47:50.598Z,20.00
2023-09-21T00:50:22.020Z,20.00
2023-09-21T00:52:52.340Z,20.00
2023-09-21T00:55:24.592Z,19.90
2023-09-21T00:57:55.720Z,20.00
2023-09-21T01:04:07.282Z,20.10
2023-09-21T01:06:34.592Z,20.00
2023-09-21T01:09:04.351Z,20.00
2023-09-21T01:11:31.449Z,20.10
2023-09-21T01:13:58.332Z,20.00
2023-09-21T01:16:25.688Z,19.90
2023-09-21T01:18:53.743Z,19.90
2023-09-21T01:25:01.923Z,20.00
2023-09-21T01:27:28.838Z,19.90
2023-09-21T01:29:56.866Z,19.80
2023-09-21T01:32:24.498Z,19.70
2023-09-21T01:34:51.490Z,19.90
2023-09-21T01:37:18.698Z,20.00
2023-09-21T01:39:45.656Z,20.10
2023-09-21T01:42:13.795Z,20.10
2023-09-21T01:49:45.596Z,20.00
2023-09-21T01:52:13.383Z,19.90
2023-09-21T01:54:40.306Z,19.90
2023-09-21T01:57:07.375Z,19.80
2023-09-21T01:59:34.858Z,19.80
2023-09-21T02:02:02.335Z,19.80
2023-09-21T02:04:29.339Z,19.80
2023-09-21T02:06:57.971Z,19.80
2023-09-21T02:14:29.476Z,19.90
2023-09-21T02:16:56.387Z,19.80
2023-09-21T02:19:23.638Z,19.70
2023-09-21T02:21:51.095Z,19.80
2023-09-21T02:24:18.117Z,19.80
2023-09-21T02:26:46.418Z,19.80
2023-09-21T02:29:13.737Z,19.80
2023-09-21T02:34:37.996Z,19.70
2023-09-21T02:37:07.208Z,19.60
2023-09-21T02:39:34.709Z,19.60
2023-09-21T02:42:01.686Z,19.60
2023-09-21T02:44:29.547Z,19.60
2023-09-21T02:46:56.647Z,19.50
2023-09-21T02:49:23.516Z,19.50
2023-09-21T02:54:32.929Z,19.50
2023-09-21T02:57:00.653Z,19.60
2023-09-21T02:59:28.808Z,19.60
2023-09-21T03:01:56.688Z,19.50
2023-09-21T03:04:23.902Z,19.60
2023-09-21T03:06:52.672Z,19.60
2023-09-21T03:09:19.603Z,19.60
2023-09-21T03:19:33.494Z,19.80
2023-09-21T03:22:01.416Z,20.00
2023-09-21T03:24:28.318Z,19.90
2023-09-21T03:26:55.536Z,20.00
2023-09-21T03:29:22.419Z,19.80
2023-09-21T03:31:49.329Z,19.80
2023-09-21T03:34:16.508Z,19.90
2023-09-21T03:36:47.176Z,19.90
2023-09-21T03:44:19.159Z,19.80
2023-09-21T03:46:46.259Z,19.80
2023-09-21T03:49:14.383Z,19.80
2023-09-21T03:51:41.332Z,19.50
2023-09-21T03:54:08.450Z,19.50
2023-09-21T03:56:36.967Z,19.30
2023-09-21T03:59:07.095Z,19.40
2023-09-21T04:07:55.758Z,19.30
2023-09-21T04:10:22.982Z,19.30
2023-09-21T04:12:55.832Z,19.40
2023-09-21T04:15:23.471Z,19.30
2023-09-21T04:17:50.907Z,19.30
2023-09-21T04:20:19.573Z,19.30
2023-09-21T04:22:48.130Z,19.30
2023-09-21T04:28:23.502Z,19.40
2023-09-21T04:30:51.441Z,19.40
2023-09-21T04:33:18.615Z,19.50
2023-09-21T04:35:45.665Z,19.40
2023-09-21T04:38:12.646Z,19.40
2023-09-21T04:40:39.551Z,19.40
2023-09-21T04:43:06.710Z,19.40
2023-09-21T04:48:13.130Z,19.30
2023-09-21T04:50:42.018Z,19.20
2023-09-21T04:53:09.059Z,19.10
2023-09-21T04:55:36.888Z,19.20
2023-09-21T04:58:04.450Z,19.20
2023-09-21T05:00:31.302Z,19.20
2023-09-21T05:02:58.479Z,19.10
2023-09-21T05:09:10.932Z,19.10
2023-09-21T05:11:39.526Z,19.10
2023-09-21T05:14:06.416Z,19.10
2023-09-21T05:16:33.484Z,19.20
2023-09-21T05:19:00.597Z,19.20
2023-09-21T05:21:27.586Z,19.20
2023-09-21T05:23:54.850Z,19.10
2023-09-21T05:26:24.098Z,18.90
2023-09-21T05:33:53.357Z,18.80
2023-09-21T05:36:20.624Z,19.00
2023-09-21T05:38:47.653Z,19.10
2023-09-21T05:41:14.579Z,19.20
2023-09-21T05:43:41.764Z,19.20
2023-09-21T05:46:09.722Z,19.10
2023-09-21T05:48:39.384Z,19.20
2023-09-21T05:59:07.666Z,19.00
2023-09-21T06:01:35.195Z,18.90
2023-09-21T06:04:03.021Z,19.00
2023-09-21T06:06:30.829Z,19.00
2023-09-21T06:08:58.097Z,19.00
2023-09-21T06:11:27.338Z,19.20
2023-09-21T06:13:54.931Z,19.20
2023-09-21T06:16:24.134Z,19.20
2023-09-21T06:23:56.458Z,19.30
2023-09-21T06:26:23.983Z,19.40
2023-09-21T06:28:51.206Z,19.50
2023-09-21T06:31:21.277Z,19.50
2023-09-21T06:33:48.632Z,19.50
2023-09-21T06:36:19.203Z,19.50
2023-09-21T06:38:49.276Z,19.40
2023-09-21T06:43:59.661Z,19.40
2023-09-21T06:46:27.107Z,19.20
2023-09-21T06:48:55.977Z,19.30
2023-09-21T06:51:24.988Z,19.30
2023-09-21T06:53:52.209Z,19.30
2023-09-21T06:56:21.880Z,19.20
2023-09-21T06:58:48.899Z,19.30
2023-09-21T07:05:26.540Z,19.60
2023-09-21T07:07:54.659Z,19.70
2023-09-21T07:10:21.564Z,19.80
2023-09-21T07:12:48.652Z,20.00
2023-09-21T07:15:15.728Z,20.00
2023-09-21T07:17:45.018Z,20.20
2023-09-21T07:20:13.013Z,20.20
2023-09-21T07:25:23.919Z,20.00
2023-09-21T07:27:53.387Z,19.90
2023-09-21T07:30:20.908Z,19.90
2023-09-21T10:32:49.904Z,18.90
2023-09-21T10:35:21.159Z,21.30
2023-09-21T10:37:52.283Z,21.60
2023-09-21T10:40:23.237Z,21.90
2023-09-21T10:42:52.106Z,22.10
2023-09-21T10:45:24.800Z,22.20
2023-09-21T10:47:54.639Z,22.40
2023-09-21T10:53:49.590Z,22.60
2023-09-21T10:56:16.601Z,22.80
2023-09-21T10:58:44.089Z,22.90
2023-09-21T11:01:11.607Z,22.90
2023-09-21T11:03:39.338Z,23.00
2023-09-21T11:06:06.797Z,23.10
2023-09-21T11:08:34.967Z,23.10
2023-09-21T11:14:45.502Z,23.30
2023-09-21T11:17:15.090Z,23.50
2023-09-21T11:19:43.474Z,23.60
2023-09-21T11:22:11.486Z,23.70
2023-09-21T11:24:39.128Z,23.60
2023-09-21T11:27:08.602Z,23.60
2023-09-21T11:29:35.879Z,23.60
2023-09-21T11:32:10.101Z,23.60
2023-09-21T11:39:46.391Z,23.60
2023-09-21T11:42:17.255Z,23.60
2023-09-21T11:44:53.606Z,23.50
2023-09-21T11:47:22.860Z,23.40
2023-09-21T11:49:54.422Z,23.60
2023-09-21T11:52:24.017Z,23.60
2023-09-21T11:54:53.356Z,23.70
2023-09-21T11:57:22.530Z,23.70
2023-09-21T12:04:54.537Z,23.60
2023-09-21T12:07:21.680Z,23.40
2023-09-21T12:09:52.452Z,23.40
2023-09-21T12:12:19.513Z,23.50
2023-09-21T12:14:46.504Z,23.50
2023-09-21T12:17:19.777Z,23.60
2023-09-21T12:19:46.785Z,23.50
2023-09-21T12:28:36.965Z,23.40
2023-09-21T12:31:04.180Z,23.30
2023-09-21T12:33:42.827Z,23.10
2023-09-21T12:36:13.135Z,23.10
2023-09-21T12:38:41.077Z,23.20
2023-09-21T12:41:10.498Z,23.20
2023-09-21T12:43:39.000Z,23.20
2023-09-21T12:53:56.599Z,23.10
2023-09-21T12:56:24.013Z,23.20
2023-09-21T12:58:51.331Z,23.20
2023-09-21T13:01:20.175Z,23.20
2023-09-21T13:03:48.116Z,23.30
2023-09-21T13:06:15.256Z,23.30
2023-09-21T13:08:44.679Z,23.50
2023-09-21T13:13:59.029Z,23.40
2023-09-21T13:16:30.573Z,23.50
2023-09-21T13:19:02.705Z,23.60
2023-09-21T13:21:35.185Z,23.70
2023-09-21T13:24:09.684Z,23.70
2023-09-21T13:26:48.134Z,23.90
2023-09-21T13:29:23.081Z,23.90
2023-09-21T13:35:44.545Z,23.40
2023-09-21T13:38:12.051Z,23.40
2023-09-21T13:40:39.358Z,23.40
2023-09-21T13:43:06.478Z,23.40
2023-09-21T13:45:33.889Z,23.40
2023-09-21T13:48:01.437Z,23.60
2023-09-21T13:50:29.299Z,23.60
2023-09-21T14:00:44.794Z,23.60
2023-09-21T14:03:12.672Z,23.40
2023-09-21T14:05:40.930Z,23.30
2023-09-21T14:08:10.361Z,23.40
2023-09-21T14:10:37.668Z,23.50
2023-09-21T14:13:05.090Z,23.40
2023-09-21T14:15:32.144Z,23.40
2023-09-21T14:25:46.856Z,23.10
2023-09-21T14:28:14.111Z,23.00
2023-09-21T14:30:41.264Z,23.00
2023-09-21T14:33:08.972Z,22.90
2023-09-21T14:35:36.085Z,22.90
2023-09-21T14:38:03.450Z,23.00
2023-09-21T14:40:30.642Z,23.10
2023-09-21T14:46:43.605Z,23.10
2023-09-21T14:49:11.193Z,23.10
2023-09-21T14:51:38.516Z,23.20
2023-09-21T14:54:06.983Z,23.20
2023-09-21T14:56:33.979Z,23.10
2023-09-21T14:59:01.547Z,23.20
2023-09-21T15:01:28.678Z,23.30
2023-09-21T15:03:56.969Z,23.40
2023-09-21T15:11:29.231Z,23.30
2023-09-21T15:13:56.912Z,23.20
2023-09-21T15:16:24.763Z,23.20
2023-09-21T15:18:52.310Z,23.30
2023-09-21T15:21:19.788Z,23.30
2023-09-21T15:23:47.229Z,23.40
2023-09-21T15:26:19.916Z,23.30
2023-09-21T15:36:10.700Z,23.30
2023-09-21T15:38:38.457Z,23.40
2023-09-21T15:41:05.784Z,23.40
2023-09-21T15:43:33.442Z,23.50
2023-09-21T15:46:00.990Z,23.40
2023-09-21T15:48:33.634Z,23.40
2023-09-21T15:51:00.975Z,23.30
2023-09-21T16:02:14.610Z,23.40
2023-09-21T16:04:41.876Z,23.30
2023-09-21T16:07:09.859Z,23.30
2023-09-21T16:09:37.495Z,23.30
2023-09-21T16:12:07.689Z,23.20
2023-09-21T16:14:34.959Z,23.10
2023-09-21T16:17:03.450Z,23.10
2023-09-21T16:22:23.829Z,23.10
2023-09-21T16:24:51.049Z,23.10
2023-09-21T16:27:18.407Z,23.10
2023-09-21T16:29:47.649Z,23.00
2023-09-21T16:32:15.659Z,22.90
2023-09-21T16:34:42.651Z,23.00
2023-09-21T16:37:10.220Z,23.10
2023-09-21T16:43:20.354Z,23.00
2023-09-21T16:45:47.378Z,23.00
2023-09-21T16:48:14.373Z,22.90
2023-09-21T16:50:41.488Z,22.80
2023-09-21T16:53:08.812Z,22.80
2023-09-21T16:55:36.910Z,22.80
2023-09-21T16:58:04.917Z,22.80
2023-09-21T17:08:42.395Z,22.60
2023-09-21T17:11:11.020Z,22.60
2023-09-21T17:13:38.130Z,22.60
2023-09-21T17:16:06.289Z,22.50
2023-09-21T17:18:33.742Z,22.60
2023-09-21T17:21:01.650Z,22.50
2023-09-21T17:23:28.907Z,22.50
2023-09-21T17:31:05.079Z,22.50
2023-09-21T17:33:40.265Z,22.50
2023-09-21T17:36:09.898Z,22.30
2023-09-21T17:38:46.499Z,22.30
2023-09-21T17:41:16.803Z,22.40
2023-09-21T17:43:44.134Z,22.40
2023-09-21T17:46:13.015Z,22.30
2023-09-21T17:51:28.844Z,22.30
2023-09-21T17:53:58.955Z,22.30
2023-09-21T17:56:28.866Z,22.20
2023-09-21T17:58:57.023Z,22.30
2023-09-21T18:01:27.146Z,22.30
2023-09-21T18:03:55.249Z,22.10
2023-09-21T18:06:23.674Z,22.20
2023-09-21T18:11:34.063Z,18.90
2023-09-21T18:14:01.340Z,18.30
2023-09-21T18:16:29.004Z,17.80
2023-09-21T18:18:58.932Z,17.40
2023-09-21T18:21:26.795Z,16.90
2023-09-21T18:23:54.080Z,16.50
2023-09-21T18:26:22.533Z,16.50
2023-09-21T18:31:44.988Z,16.70
2023-09-21T18:34:12.160Z,16.40
2023-09-21T18:36:39.309Z,16.30
2023-09-21T18:39:06.772Z,16.30
2023-09-21T18:41:35.070Z,16.20
2023-09-21T18:44:02.331Z,16.20
2023-09-21T18:46:31.053Z,16.20
2023-09-21T18:51:57.777Z,16.00
2023-09-21T18:54:26.455Z,15.90
2023-09-21T18:57:02.424Z,15.90
2023-09-21T18:59:33.049Z,16.00
2023-09-21T19:02:03.839Z,16.10
2023-09-21T19:04:31.749Z,16.10
2023-09-21T19:10:40.078Z,16.20
2023-09-21T19:13:08.297Z,16.30
2023-09-21T19:15:35.766Z,16.50
2023-09-21T19:18:03.284Z,16.30
2023-09-21T19:20:31.144Z,16.40
2023-09-21T19:22:58.540Z,16.40
2023-09-21T19:25:26.008Z,16.30
2023-09-21T19:31:07.683Z,16.10
2023-09-21T19:33:35.276Z,15.50
2023-09-21T19:36:02.756Z,15.50
2023-09-21T19:38:29.854Z,15.50
2023-09-21T19:40:57.181Z,15.60
2023-09-21T19:43:24.630Z,15.70
2023-09-21T19:45:52.283Z,15.70
2023-09-21T19:48:21.566Z,15.70
2023-09-21T19:55:53.426Z,15.60
2023-09-21T19:58:20.774Z,15.90
2023-09-21T20:00:48.060Z,15.90
2023-09-21T20:03:17.526Z,15.80
2023-09-21T20:05:45.338Z,15.80
2023-09-21T20:08:12.465Z,15.90
2023-09-21T20:10:39.702Z,16.00
2023-09-21T20:19:43.022Z,16.30
2023-09-21T20:22:11.081Z,16.70
2023-09-21T20:24:38.325Z,17.00
2023-09-21T20:27:06.779Z,17.10
2023-09-21T20:29:35.595Z,17.20
2023-09-21T20:32:06.169Z,17.30
2023-09-21T20:34:33.434Z,17.40
2023-09-21T20:39:54.389Z,17.50
2023-09-21T20:42:22.094Z,17.50
2023-09-21T20:44:50.810Z,17.60
2023-09-21T20:47:18.538Z,17.80
2023-09-21T20:49:46.295Z,17.90
2023-09-21T20:52:13.767Z,17.80
2023-09-21T20:54:41.309Z,17.80
2023-09-21T21:00:23.112Z,17.80
2023-09-21T21:02:50.545Z,17.70
2023-09-21T21:05:17.523Z,17.80
2023-09-21T21:07:44.676Z,17.80
2023-09-21T21:10:11.449Z,17.80
2023-09-21T21:12:39.384Z,17.80
2023-09-21T21:15:37.341Z,17.80
2023-09-21T21:24:44.744Z,17.60
2023-09-21T21:27:12.400Z,17.60
2023-09-21T21:29:39.400Z,17.50
2023-09-21T21:32:07.920Z,17.40
2023-09-21T21:34:34.909Z,17.30
2023-09-21T21:37:02.514Z,17.30
2023-09-21T21:39:29.559Z,17.30
2023-09-21T21:44:40.140Z,17.00
2023-09-21T21:47:07.524Z,17.00
2023-09-21T21:49:34.945Z,16.90
2023-09-21T21:52:02.477Z,16.80
2023-09-21T21:54:29.512Z,16.80
2023-09-21T21:56:57.384Z,16.80
2023-09-21T21:59:25.120Z,16.90
2023-09-21T22:05:51.960Z,16.80
2023-09-21T22:08:19.264Z,16.80
2023-09-21T22:10:46.268Z,16.90
2023-09-21T22:13:13.847Z,16.90
2023-09-21T22:15:41.228Z,16.90
2023-09-21T22:18:09.741Z,17.00
2023-09-21T22:20:40.588Z,16.90
2023-09-21T22:30:50.107Z,17.00
2023-09-21T22:33:17.719Z,17.20
2023-09-21T22:35:44.988Z,17.20
2023-09-21T22:38:14.934Z,17.30
2023-09-21T22:40:43.738Z,17.40
2023-09-21T22:43:11.266Z,17.30
2023-09-21T22:45:39.969Z,17.40
2023-09-21T22:51:32.803Z,17.50
2023-09-21T22:54:00.488Z,17.40
2023-09-21T22:56:27.685Z,17.20
2023-09-21T22:58:56.924Z,17.10
2023-09-21T23:01:23.897Z,17.10
2023-09-21T23:03:50.952Z,17.10
2023-09-21T23:06:19.374Z,17.10
2023-09-21T23:16:33.887Z,17.20
2023-09-21T23:19:01.821Z,17.10
2023-09-21T23:21:30.006Z,17.10
2023-09-21T23:23:57.040Z,17.00
2023-09-21T23:26:24.142Z,17.10
2023-09-21T23:28:51.287Z,17.00
2023-09-21T23:31:19.089Z,16.90
2023-09-21T23:36:31.368Z,16.80
2023-09-21T23:39:14.216Z,16.60
2023-09-21T23:41:42.148Z,16.60
2023-09-21T23:44:11.422Z,16.70
2023-09-21T23:46:41.524Z,16.70
2023-09-21T23:49:08.818Z,16.60
2023-09-21T23:51:36.922Z,16.70
2023-09-21T23:57:44.271Z,16.70
